sensor_id;sensor_type;location;lat;lon;timestamp;pressure;altitude;pressure_sealevel;temperature;humidity
50105;BME280;47690;39.202;-77.198;2023-02-14T00:02:47;99066.16;;;37.53;5.21
50105;BME280;47690;39.202;-77.198;2023-02-14T00:07:26;99069.16;;;36.65;5.54
50105;BME280;47690;39.202;-77.198;2023-02-14T00:17:23;99076.69;;;36.30;5.41
50105;BME280;47690;39.202;-77.198;2023-02-14T00:21:07;99081.09;;;36.25;5.37
50105;BME280;47690;39.202;-77.198;2023-02-14T00:24:13;99092.19;;;35.77;5.87
50105;BME280;47690;39.202;-77.198;2023-02-14T00:28:22;99103.00;;;36.21;5.55
50105;BME280;47690;39.202;-77.198;2023-02-14T00:31:34;99100.59;;;36.06;5.89
50105;BME280;47690;39.202;-77.198;2023-02-14T00:34:43;99108.00;;;36.11;5.64
50105;BME280;47690;39.202;-77.198;2023-02-14T00:37:53;99112.97;;;36.07;5.97
50105;BME280;47690;39.202;-77.198;2023-02-14T00:41:03;99102.25;;;36.07;6.17
50105;BME280;47690;39.202;-77.198;2023-02-14T00:44:38;99113.25;;;36.25;5.77
50105;BME280;47690;39.202;-77.198;2023-02-14T00:48:35;99116.91;;;36.30;5.79
50105;BME280;47690;39.202;-77.198;2023-02-14T00:51:50;99126.72;;;36.18;5.93
50105;BME280;47690;39.202;-77.198;2023-02-14T00:55:14;99133.34;;;36.15;5.95
50105;BME280;47690;39.202;-77.198;2023-02-14T00:58:39;99138.66;;;35.90;5.83
50105;BME280;47690;39.202;-77.198;2023-02-14T01:02:10;99142.38;;;36.21;6.07
50105;BME280;47690;39.202;-77.198;2023-02-14T01:05:31;99138.31;;;36.12;6.10
50105;BME280;47690;39.202;-77.198;2023-02-14T01:09:03;99154.25;;;36.00;6.14
50105;BME280;47690;39.202;-77.198;2023-02-14T01:13:04;99156.84;;;35.81;6.03
50105;BME280;47690;39.202;-77.198;2023-02-14T01:16:11;99157.59;;;35.56;5.89
50105;BME280;47690;39.202;-77.198;2023-02-14T01:19:19;99171.19;;;35.61;6.13
50105;BME280;47690;39.202;-77.198;2023-02-14T01:23:33;99169.34;;;35.62;6.04
50105;BME280;47690;39.202;-77.198;2023-02-14T01:26:38;99178.75;;;35.25;6.27
50105;BME280;47690;39.202;-77.198;2023-02-14T01:29:41;99189.91;;;35.09;6.49
50105;BME280;47690;39.202;-77.198;2023-02-14T01:33:03;99187.00;;;35.04;6.54
50105;BME280;47690;39.202;-77.198;2023-02-14T01:36:32;99187.66;;;34.99;6.55
50105;BME280;47690;39.202;-77.198;2023-02-14T01:40:05;99194.06;;;34.84;6.37
50105;BME280;47690;39.202;-77.198;2023-02-14T01:43:07;99196.34;;;34.67;6.66
50105;BME280;47690;39.202;-77.198;2023-02-14T01:46:07;99208.69;;;34.68;6.47
50105;BME280;47690;39.202;-77.198;2023-02-14T01:49:21;99204.38;;;34.74;6.32
50105;BME280;47690;39.202;-77.198;2023-02-14T01:52:32;99206.00;;;34.68;6.47
50105;BME280;47690;39.202;-77.198;2023-02-14T01:56:06;99207.44;;;34.78;6.47
50105;BME280;47690;39.202;-77.198;2023-02-14T01:59:20;99213.19;;;34.54;7.04
50105;BME280;47690;39.202;-77.198;2023-02-14T02:03:13;99222.09;;;34.55;6.67
50105;BME280;47690;39.202;-77.198;2023-02-14T02:06:43;99241.75;;;34.33;6.89
50105;BME280;47690;39.202;-77.198;2023-02-14T02:09:54;99246.06;;;34.14;6.66
50105;BME280;47690;39.202;-77.198;2023-02-14T02:13:12;99250.72;;;33.99;7.18
50105;BME280;47690;39.202;-77.198;2023-02-14T02:27:26;99286.31;;;33.57;7.04
50105;BME280;47690;39.202;-77.198;2023-02-14T02:34:18;99291.63;;;33.50;7.38
50105;BME280;47690;39.202;-77.198;2023-02-14T02:37:42;99282.41;;;33.24;7.17
50105;BME280;47690;39.202;-77.198;2023-02-14T02:48:42;99292.06;;;32.75;7.54
50105;BME280;47690;39.202;-77.198;2023-02-14T02:51:53;99298.13;;;32.62;7.40
50105;BME280;47690;39.202;-77.198;2023-02-14T02:59:29;99319.53;;;32.32;7.22
50105;BME280;47690;39.202;-77.198;2023-02-14T03:02:38;99320.66;;;32.23;7.66
50105;BME280;47690;39.202;-77.198;2023-02-14T03:06:06;99335.09;;;32.13;7.41
50105;BME280;47690;39.202;-77.198;2023-02-14T03:14:07;99335.78;;;32.59;7.02
50105;BME280;47690;39.202;-77.198;2023-02-14T03:17:36;99344.25;;;31.89;7.70
50105;BME280;47690;39.202;-77.198;2023-02-14T03:21:04;99354.88;;;31.89;7.65
50105;BME280;47690;39.202;-77.198;2023-02-14T03:28:36;99367.25;;;31.67;7.69
50105;BME280;47690;39.202;-77.198;2023-02-14T03:34:56;99374.25;;;31.29;8.17
50105;BME280;47690;39.202;-77.198;2023-02-14T03:42:17;99388.50;;;31.37;8.17
50105;BME280;47690;39.202;-77.198;2023-02-14T03:46:27;99392.75;;;31.23;8.13
50105;BME280;47690;39.202;-77.198;2023-02-14T03:49:35;99403.50;;;31.06;7.99
50105;BME280;47690;39.202;-77.198;2023-02-14T03:52:40;99406.94;;;30.91;7.96
50105;BME280;47690;39.202;-77.198;2023-02-14T03:56:45;99412.78;;;31.10;8.22
50105;BME280;47690;39.202;-77.198;2023-02-14T03:59:42;99414.50;;;31.03;7.95
50105;BME280;47690;39.202;-77.198;2023-02-14T04:03:13;99414.81;;;31.31;7.79
50105;BME280;47690;39.202;-77.198;2023-02-14T04:06:09;99416.41;;;31.56;7.99
50105;BME280;47690;39.202;-77.198;2023-02-14T04:09:05;99428.84;;;31.64;7.52
50105;BME280;47690;39.202;-77.198;2023-02-14T04:12:09;99425.91;;;32.03;7.86
50105;BME280;47690;39.202;-77.198;2023-02-14T04:15:23;99437.22;;;32.36;7.61
50105;BME280;47690;39.202;-77.198;2023-02-14T04:18:25;99446.09;;;32.58;7.46
50105;BME280;47690;39.202;-77.198;2023-02-14T04:21:46;99443.09;;;32.83;7.44
50105;BME280;47690;39.202;-77.198;2023-02-14T04:24:49;99447.06;;;33.09;7.35
50105;BME280;47690;39.202;-77.198;2023-02-14T04:27:51;99449.41;;;33.19;7.55
50105;BME280;47690;39.202;-77.198;2023-02-14T04:31:20;99455.75;;;33.40;7.26
50105;BME280;47690;39.202;-77.198;2023-02-14T04:34:21;99467.69;;;33.44;6.91
50105;BME280;47690;39.202;-77.198;2023-02-14T04:37:27;99468.69;;;33.64;6.79
50105;BME280;47690;39.202;-77.198;2023-02-14T04:40:30;99470.00;;;33.75;6.82
50105;BME280;47690;39.202;-77.198;2023-02-14T04:43:33;99469.00;;;34.05;7.16
50105;BME280;47690;39.202;-77.198;2023-02-14T04:46:37;99476.00;;;34.06;7.04
50105;BME280;47690;39.202;-77.198;2023-02-14T04:49:42;99480.81;;;34.24;7.02
50105;BME280;47690;39.202;-77.198;2023-02-14T04:52:46;99468.31;;;34.31;6.62
50105;BME280;47690;39.202;-77.198;2023-02-14T04:55:50;99474.94;;;34.42;6.68
50105;BME280;47690;39.202;-77.198;2023-02-14T04:58:54;99483.88;;;34.56;6.74
50105;BME280;47690;39.202;-77.198;2023-02-14T05:01:58;99489.88;;;34.65;6.67
50105;BME280;47690;39.202;-77.198;2023-02-14T05:05:01;99478.56;;;34.77;6.64
50105;BME280;47690;39.202;-77.198;2023-02-14T05:08:26;99488.72;;;35.01;6.55
50105;BME280;47690;39.202;-77.198;2023-02-14T05:11:22;99494.47;;;34.98;6.48
50105;BME280;47690;39.202;-77.198;2023-02-14T05:14:19;99497.16;;;34.98;6.74
50105;BME280;47690;39.202;-77.198;2023-02-14T05:17:22;99500.31;;;35.09;6.41
50105;BME280;47690;39.202;-77.198;2023-02-14T05:20:29;99504.03;;;35.21;6.62
50105;BME280;47690;39.202;-77.198;2023-02-14T05:23:33;99503.00;;;35.29;6.55
50105;BME280;47690;39.202;-77.198;2023-02-14T05:26:37;99521.53;;;35.31;6.58
50105;BME280;47690;39.202;-77.198;2023-02-14T05:29:41;99512.69;;;35.44;6.20
50105;BME280;47690;39.202;-77.198;2023-02-14T05:33:12;99519.94;;;35.63;5.91
50105;BME280;47690;39.202;-77.198;2023-02-14T05:36:17;99523.41;;;35.44;6.28
50105;BME280;47690;39.202;-77.198;2023-02-14T05:39:19;99539.25;;;35.38;6.26
50105;BME280;47690;39.202;-77.198;2023-02-14T05:42:25;99536.34;;;35.26;6.35
50105;BME280;47690;39.202;-77.198;2023-02-14T05:45:30;99549.78;;;36.21;6.22
50105;BME280;47690;39.202;-77.198;2023-02-14T05:49:01;99561.13;;;35.96;5.78
50105;BME280;47690;39.202;-77.198;2023-02-14T05:52:05;99571.25;;;35.67;6.24
50105;BME280;47690;39.202;-77.198;2023-02-14T05:55:09;99570.19;;;35.75;6.10
50105;BME280;47690;39.202;-77.198;2023-02-14T05:58:11;99581.88;;;35.47;6.26
50105;BME280;47690;39.202;-77.198;2023-02-14T06:01:15;99586.22;;;35.54;6.31
50105;BME280;47690;39.202;-77.198;2023-02-14T06:04:17;99584.78;;;35.52;6.26
50105;BME280;47690;39.202;-77.198;2023-02-14T06:07:51;99596.56;;;35.71;6.14
50105;BME280;47690;39.202;-77.198;2023-02-14T06:47:20;99677.16;;;35.14;6.23
50105;BME280;47690;39.202;-77.198;2023-02-14T06:51:59;99673.50;;;34.93;6.31
50105;BME280;47690;39.202;-77.198;2023-02-14T07:02:51;99695.84;;;35.63;5.94
50105;BME280;47690;39.202;-77.198;2023-02-14T07:10:42;99709.91;;;35.23;6.04
50105;BME280;47690;39.202;-77.198;2023-02-14T07:14:03;99719.22;;;34.98;6.28
50105;BME280;47690;39.202;-77.198;2023-02-14T07:17:46;99721.84;;;34.85;6.20
50105;BME280;47690;39.202;-77.198;2023-02-14T07:21:22;99715.31;;;34.66;6.29
50105;BME280;47690;39.202;-77.198;2023-02-14T07:24:20;99718.47;;;34.47;6.52
50105;BME280;47690;39.202;-77.198;2023-02-14T07:27:29;99728.81;;;34.36;6.66
50105;BME280;47690;39.202;-77.198;2023-02-14T07:30:42;99733.41;;;34.42;6.67
50105;BME280;47690;39.202;-77.198;2023-02-14T07:33:43;99732.91;;;34.31;6.36
50105;BME280;47690;39.202;-77.198;2023-02-14T07:37:23;99743.16;;;34.28;6.67
50105;BME280;47690;39.202;-77.198;2023-02-14T07:40:35;99753.34;;;34.17;6.84
50105;BME280;47690;39.202;-77.198;2023-02-14T07:43:35;99753.41;;;34.02;6.72
50105;BME280;47690;39.202;-77.198;2023-02-14T07:47:10;99768.88;;;34.29;6.54
50105;BME280;47690;39.202;-77.198;2023-02-14T07:50:22;99762.06;;;34.26;6.37
50105;BME280;47690;39.202;-77.198;2023-02-14T07:53:34;99762.31;;;34.10;6.42
50105;BME280;47690;39.202;-77.198;2023-02-14T07:56:42;99767.22;;;34.06;6.52
50105;BME280;47690;39.202;-77.198;2023-02-14T07:59:50;99777.09;;;33.90;6.70
50105;BME280;47690;39.202;-77.198;2023-02-14T08:03:06;99791.00;;;33.86;6.77
50105;BME280;47690;39.202;-77.198;2023-02-14T08:06:19;99793.34;;;33.74;6.58
50105;BME280;47690;39.202;-77.198;2023-02-14T08:09:51;99787.91;;;33.67;6.87
50105;BME280;47690;39.202;-77.198;2023-02-14T08:12:50;99804.44;;;33.47;6.61
50105;BME280;47690;39.202;-77.198;2023-02-14T08:16:04;99808.97;;;33.47;6.87
50105;BME280;47690;39.202;-77.198;2023-02-14T08:19:14;99815.78;;;33.34;7.19
50105;BME280;47690;39.202;-77.198;2023-02-14T08:22:23;99823.50;;;33.14;6.84
50105;BME280;47690;39.202;-77.198;2023-02-14T08:25:50;99826.81;;;33.01;7.09
50105;BME280;47690;39.202;-77.198;2023-02-14T08:28:50;99819.41;;;32.41;7.24
50105;BME280;47690;39.202;-77.198;2023-02-14T08:31:50;99825.22;;;31.65;7.79
50105;BME280;47690;39.202;-77.198;2023-02-14T08:35:03;99830.09;;;31.53;7.61
50105;BME280;47690;39.202;-77.198;2023-02-14T08:38:07;99841.25;;;31.48;7.69
50105;BME280;47690;39.202;-77.198;2023-02-14T08:41:11;99848.28;;;31.41;8.00
50105;BME280;47690;39.202;-77.198;2023-02-14T08:44:18;99858.84;;;31.74;7.72
50105;BME280;47690;39.202;-77.198;2023-02-14T08:47:53;99853.50;;;31.83;7.46
50105;BME280;47690;39.202;-77.198;2023-02-14T08:51:05;99862.63;;;31.88;7.86
50105;BME280;47690;39.202;-77.198;2023-02-14T08:54:33;99871.59;;;31.96;7.71
50105;BME280;47690;39.202;-77.198;2023-02-14T08:57:38;99886.06;;;31.93;7.58
50105;BME280;47690;39.202;-77.198;2023-02-14T09:00:34;99884.09;;;31.79;7.80
50105;BME280;47690;39.202;-77.198;2023-02-14T09:03:38;99885.63;;;31.73;7.51
50105;BME280;47690;39.202;-77.198;2023-02-14T09:06:43;99886.53;;;31.32;7.79
50105;BME280;47690;39.202;-77.198;2023-02-14T09:09:47;99886.84;;;31.04;7.86
50105;BME280;47690;39.202;-77.198;2023-02-14T09:12:50;99891.31;;;30.78;8.04
50105;BME280;47690;39.202;-77.198;2023-02-14T09:16:08;99903.13;;;30.76;8.25
50105;BME280;47690;39.202;-77.198;2023-02-14T09:19:19;99912.19;;;30.57;7.97
50105;BME280;47690;39.202;-77.198;2023-02-14T09:22:22;99918.31;;;30.49;8.24
50105;BME280;47690;39.202;-77.198;2023-02-14T09:25:19;99914.41;;;30.78;8.23
50105;BME280;47690;39.202;-77.198;2023-02-14T09:28:22;99920.09;;;31.58;7.83
50105;BME280;47690;39.202;-77.198;2023-02-14T09:31:32;99913.44;;;31.54;7.55
50105;BME280;47690;39.202;-77.198;2023-02-14T09:34:41;99917.22;;;32.41;7.56
50105;BME280;47690;39.202;-77.198;2023-02-14T09:37:51;99913.41;;;31.70;7.32
50105;BME280;47690;39.202;-77.198;2023-02-14T09:51:26;99953.69;;;31.09;7.95
50105;BME280;47690;39.202;-77.198;2023-02-14T09:54:35;99970.28;;;30.94;7.93
50105;BME280;47690;39.202;-77.198;2023-02-14T09:57:56;99982.22;;;30.90;7.87
50105;BME280;47690;39.202;-77.198;2023-02-14T10:01:37;99996.38;;;30.99;7.86
50105;BME280;47690;39.202;-77.198;2023-02-14T10:09:14;100017.50;;;31.01;7.92
50105;BME280;47690;39.202;-77.198;2023-02-14T10:11:46;100026.53;;;30.38;8.30
50105;BME280;47690;39.202;-77.198;2023-02-14T10:15:14;100036.06;;;29.96;8.37
50105;BME280;47690;39.202;-77.198;2023-02-14T10:18:26;100042.69;;;30.19;8.12
50105;BME280;47690;39.202;-77.198;2023-02-14T10:21:39;100044.41;;;29.57;8.84
50105;BME280;47690;39.202;-77.198;2023-02-14T10:24:55;100039.59;;;29.42;8.82
50105;BME280;47690;39.202;-77.198;2023-02-14T10:28:03;100050.03;;;29.26;8.71
50105;BME280;47690;39.202;-77.198;2023-02-14T10:31:26;100061.41;;;29.18;8.83
50105;BME280;47690;39.202;-77.198;2023-02-14T10:35:10;100082.84;;;29.25;8.90
50105;BME280;47690;39.202;-77.198;2023-02-14T10:38:40;100094.59;;;29.22;8.74
50105;BME280;47690;39.202;-77.198;2023-02-14T10:45:56;100117.00;;;29.10;8.81
50105;BME280;47690;39.202;-77.198;2023-02-14T10:49:24;100125.16;;;28.98;8.80
50105;BME280;47690;39.202;-77.198;2023-02-14T10:56:49;100137.06;;;28.74;8.74
50105;BME280;47690;39.202;-77.198;2023-02-14T11:00:38;100144.91;;;28.66;9.37
50105;BME280;47690;39.202;-77.198;2023-02-14T11:04:03;100150.22;;;28.66;9.09
50105;BME280;47690;39.202;-77.198;2023-02-14T11:07:20;100151.75;;;28.59;9.27
50105;BME280;47690;39.202;-77.198;2023-02-14T11:10:33;100159.88;;;28.47;8.78
50105;BME280;47690;39.202;-77.198;2023-02-14T11:13:39;100164.50;;;28.93;8.84
50105;BME280;47690;39.202;-77.198;2023-02-14T11:17:40;100173.22;;;28.66;9.41
50105;BME280;47690;39.202;-77.198;2023-02-14T11:20:42;100179.97;;;28.40;9.17
50105;BME280;47690;39.202;-77.198;2023-02-14T11:23:45;100177.47;;;28.29;8.91
50105;BME280;47690;39.202;-77.198;2023-02-14T11:27:02;100178.97;;;28.41;9.59
50105;BME280;47690;39.202;-77.198;2023-02-14T11:30:40;100178.84;;;28.43;9.05
50105;BME280;47690;39.202;-77.198;2023-02-14T11:33:55;100175.94;;;28.26;9.34
50105;BME280;47690;39.202;-77.198;2023-02-14T11:36:59;100171.59;;;28.15;9.42
50105;BME280;47690;39.202;-77.198;2023-02-14T11:40:26;100167.44;;;28.22;9.38
50105;BME280;47690;39.202;-77.198;2023-02-14T11:44:13;100176.38;;;28.31;9.56
50105;BME280;47690;39.202;-77.198;2023-02-14T11:47:38;100186.50;;;28.16;9.13
50105;BME280;47690;39.202;-77.198;2023-02-14T11:50:39;100197.63;;;28.00;9.52
50105;BME280;47690;39.202;-77.198;2023-02-14T11:57:37;100214.09;;;28.14;9.48
50105;BME280;47690;39.202;-77.198;2023-02-14T12:01:48;100213.66;;;28.18;9.63
50105;BME280;47690;39.202;-77.198;2023-02-14T12:04:53;100219.81;;;28.09;9.13
50105;BME280;47690;39.202;-77.198;2023-02-14T12:08:07;100218.97;;;27.99;9.31
50105;BME280;47690;39.202;-77.198;2023-02-14T12:11:22;100224.66;;;28.04;9.31
50105;BME280;47690;39.202;-77.198;2023-02-14T12:14:35;100223.97;;;28.02;9.37
50105;BME280;47690;39.202;-77.198;2023-02-14T12:17:43;100234.13;;;27.97;9.66
50105;BME280;47690;39.202;-77.198;2023-02-14T12:28:44;100280.84;;;28.17;9.19
50105;BME280;47690;39.202;-77.198;2023-02-14T12:31:51;100296.72;;;28.07;9.42
50105;BME280;47690;39.202;-77.198;2023-02-14T12:41:48;100313.31;;;28.19;9.61
50105;BME280;47690;39.202;-77.198;2023-02-14T12:46:24;100325.50;;;28.32;9.33
50105;BME280;47690;39.202;-77.198;2023-02-14T12:56:58;100345.47;;;28.46;9.47
50105;BME280;47690;39.202;-77.198;2023-02-14T13:00:18;100362.75;;;28.50;9.32
50105;BME280;47690;39.202;-77.198;2023-02-14T13:07:33;100391.75;;;28.71;9.21
50105;BME280;47690;39.202;-77.198;2023-02-14T13:10:44;100398.19;;;28.69;9.09
50105;BME280;47690;39.202;-77.198;2023-02-14T13:14:21;100383.81;;;28.81;9.13
50105;BME280;47690;39.202;-77.198;2023-02-14T13:17:46;100396.81;;;29.04;9.88
50105;BME280;47690;39.202;-77.198;2023-02-14T13:21:19;100411.56;;;29.56;9.29
50105;BME280;47690;39.202;-77.198;2023-02-14T13:24:40;100407.34;;;29.63;9.32
50105;BME280;47690;39.202;-77.198;2023-02-14T13:27:47;100416.19;;;29.54;9.40
50105;BME280;47690;39.202;-77.198;2023-02-14T13:30:55;100418.00;;;30.57;8.71
50105;BME280;47690;39.202;-77.198;2023-02-14T13:34:21;100418.38;;;30.06;9.18
50105;BME280;47690;39.202;-77.198;2023-02-14T13:37:29;100422.97;;;30.14;9.07
50105;BME280;47690;39.202;-77.198;2023-02-14T13:40:55;100419.84;;;30.47;8.91
50105;BME280;47690;39.202;-77.198;2023-02-14T13:44:47;100429.03;;;30.99;9.13
50105;BME280;47690;39.202;-77.198;2023-02-14T13:48:15;100449.16;;;31.38;8.94
50105;BME280;47690;39.202;-77.198;2023-02-14T13:51:43;100457.72;;;31.76;8.76
50105;BME280;47690;39.202;-77.198;2023-02-14T13:55:27;100458.56;;;32.03;8.56
50105;BME280;47690;39.202;-77.198;2023-02-14T14:06:12;100471.72;;;33.16;8.38
50105;BME280;47690;39.202;-77.198;2023-02-14T14:12:51;100469.88;;;33.66;8.44
50105;BME280;47690;39.202;-77.198;2023-02-14T14:16:30;100474.75;;;34.19;7.97
50105;BME280;47690;39.202;-77.198;2023-02-14T14:19:52;100480.63;;;34.46;8.05
50105;BME280;47690;39.202;-77.198;2023-02-14T14:22:56;100478.91;;;34.62;8.13
50105;BME280;47690;39.202;-77.198;2023-02-14T14:26:35;100494.22;;;34.99;8.16
50105;BME280;47690;39.202;-77.198;2023-02-14T14:29:47;100492.44;;;35.15;7.99
50105;BME280;47690;39.202;-77.198;2023-02-14T14:32:46;100493.38;;;35.22;7.87
50105;BME280;47690;39.202;-77.198;2023-02-14T14:36:07;100507.09;;;35.42;8.07
50105;BME280;47690;39.202;-77.198;2023-02-14T14:39:11;100507.88;;;35.51;7.60
50105;BME280;47690;39.202;-77.198;2023-02-14T14:42:19;100518.03;;;35.56;7.53
50105;BME280;47690;39.202;-77.198;2023-02-14T14:45:34;100527.25;;;35.77;7.53
50105;BME280;47690;39.202;-77.198;2023-02-14T14:48:51;100524.56;;;35.92;7.55
50105;BME280;47690;39.202;-77.198;2023-02-14T14:52:06;100526.31;;;36.82;7.09
50105;BME280;47690;39.202;-77.198;2023-02-14T14:55:23;100536.84;;;36.46;7.27
50105;BME280;47690;39.202;-77.198;2023-02-14T15:02:23;100535.03;;;36.69;7.43
50105;BME280;47690;39.202;-77.198;2023-02-14T15:06:16;100534.97;;;36.99;7.01
50105;BME280;47690;39.202;-77.198;2023-02-14T15:09:31;100539.53;;;37.05;7.46
50105;BME280;47690;39.202;-77.198;2023-02-14T15:12:36;100541.91;;;37.08;6.91
50105;BME280;47690;39.202;-77.198;2023-02-14T15:16:03;100545.47;;;37.15;7.11
50105;BME280;47690;39.202;-77.198;2023-02-14T15:19:31;100542.66;;;37.24;7.23
50105;BME280;47690;39.202;-77.198;2023-02-14T15:22:47;100534.41;;;37.25;6.78
50105;BME280;47690;39.202;-77.198;2023-02-14T15:25:51;100527.00;;;37.27;7.33
50105;BME280;47690;39.202;-77.198;2023-02-14T15:32:35;100527.03;;;37.91;6.96
50105;BME280;47690;39.202;-77.198;2023-02-14T15:36:14;100519.91;;;38.05;6.50
50105;BME280;47690;39.202;-77.198;2023-02-14T15:39:49;100511.28;;;38.23;6.55
50105;BME280;47690;39.202;-77.198;2023-02-14T15:46:38;100525.00;;;39.18;6.40
50105;BME280;47690;39.202;-77.198;2023-02-14T15:49:36;100524.22;;;39.51;6.34
50105;BME280;47690;39.202;-77.198;2023-02-14T15:52:44;100521.66;;;39.97;6.48
50105;BME280;47690;39.202;-77.198;2023-02-14T15:55:50;100513.88;;;40.21;6.11
50105;BME280;47690;39.202;-77.198;2023-02-14T15:59:11;100503.44;;;40.38;6.05
50105;BME280;47690;39.202;-77.198;2023-02-14T16:02:39;100484.34;;;40.72;5.87
50105;BME280;47690;39.202;-77.198;2023-02-14T16:06:13;100489.69;;;40.85;5.51
50105;BME280;47690;39.202;-77.198;2023-02-14T16:09:24;100508.41;;;42.31;4.84
50105;BME280;47690;39.202;-77.198;2023-02-14T16:12:35;100496.88;;;41.86;5.65
50105;BME280;47690;39.202;-77.198;2023-02-14T16:15:43;100490.91;;;41.59;6.01
50105;BME280;47690;39.202;-77.198;2023-02-14T16:19:33;100490.66;;;41.67;5.29
50105;BME280;47690;39.202;-77.198;2023-02-14T16:22:42;100493.38;;;41.42;5.60
50105;BME280;47690;39.202;-77.198;2023-02-14T16:25:52;100497.59;;;41.56;6.10
50105;BME280;47690;39.202;-77.198;2023-02-14T16:29:05;100487.97;;;41.42;5.85
50105;BME280;47690;39.202;-77.198;2023-02-14T16:32:22;100481.03;;;41.27;5.82
50105;BME280;47690;39.202;-77.198;2023-02-14T16:35:34;100477.78;;;40.93;5.94
50105;BME280;47690;39.202;-77.198;2023-02-14T16:38:44;100488.00;;;40.52;6.01
50105;BME280;47690;39.202;-77.198;2023-02-14T16:41:52;100492.06;;;40.36;5.93
50105;BME280;47690;39.202;-77.198;2023-02-14T16:45:02;100490.28;;;40.02;6.08
50105;BME280;47690;39.202;-77.198;2023-02-14T16:48:37;100484.19;;;40.21;5.81
50105;BME280;47690;39.202;-77.198;2023-02-14T16:52:16;100481.41;;;40.48;5.47
50105;BME280;47690;39.202;-77.198;2023-02-14T16:55:22;100470.06;;;40.64;5.82
50105;BME280;47690;39.202;-77.198;2023-02-14T16:58:36;100480.94;;;40.58;5.68
50105;BME280;47690;39.202;-77.198;2023-02-14T17:01:42;100473.84;;;40.18;5.73
50105;BME280;47690;39.202;-77.198;2023-02-14T17:04:51;100478.91;;;39.87;6.15
50105;BME280;47690;39.202;-77.198;2023-02-14T17:07:55;100461.13;;;39.72;6.15
50105;BME280;47690;39.202;-77.198;2023-02-14T17:11:14;100453.28;;;39.64;5.52
50105;BME280;47690;39.202;-77.198;2023-02-14T17:14:47;100432.09;;;39.74;5.51
50105;BME280;47690;39.202;-77.198;2023-02-14T17:17:48;100436.06;;;39.65;5.66
50105;BME280;47690;39.202;-77.198;2023-02-14T17:20:52;100429.22;;;39.69;5.75
50105;BME280;47690;39.202;-77.198;2023-02-14T17:24:02;100429.44;;;39.68;5.80
50105;BME280;47690;39.202;-77.198;2023-02-14T17:27:11;100426.94;;;39.73;5.47
50105;BME280;47690;39.202;-77.198;2023-02-14T17:30:46;100422.28;;;39.94;5.54
50105;BME280;47690;39.202;-77.198;2023-02-14T17:33:54;100419.66;;;39.80;5.75
50105;BME280;47690;39.202;-77.198;2023-02-14T17:36:59;100431.06;;;39.75;5.57
50105;BME280;47690;39.202;-77.198;2023-02-14T17:40:07;100427.56;;;39.68;5.76
50105;BME280;47690;39.202;-77.198;2023-02-14T17:43:14;100421.34;;;40.20;5.21
50105;BME280;47690;39.202;-77.198;2023-02-14T17:46:43;100412.53;;;39.93;5.59
50105;BME280;47690;39.202;-77.198;2023-02-14T17:50:08;100402.69;;;40.51;5.02
50105;BME280;47690;39.202;-77.198;2023-02-14T17:53:14;100397.16;;;40.39;5.43
50105;BME280;47690;39.202;-77.198;2023-02-14T17:56:23;100389.47;;;40.42;5.30
50105;BME280;47690;39.202;-77.198;2023-02-14T17:59:33;100396.34;;;40.38;5.18
50105;BME280;47690;39.202;-77.198;2023-02-14T18:02:55;100392.22;;;40.36;5.40
50105;BME280;47690;39.202;-77.198;2023-02-14T18:06:03;100388.22;;;40.06;5.24
50105;BME280;47690;39.202;-77.198;2023-02-14T18:09:09;100381.44;;;39.97;5.45
50105;BME280;47690;39.202;-77.198;2023-02-14T18:12:18;100379.22;;;40.19;5.32
50105;BME280;47690;39.202;-77.198;2023-02-14T18:15:23;100384.56;;;40.26;5.10
50105;BME280;47690;39.202;-77.198;2023-02-14T18:18:50;100380.94;;;40.46;4.91
50105;BME280;47690;39.202;-77.198;2023-02-14T18:21:54;100374.13;;;40.43;5.25
50105;BME280;47690;39.202;-77.198;2023-02-14T18:25:16;100367.28;;;40.66;5.03
50105;BME280;47690;39.202;-77.198;2023-02-14T18:28:23;100366.03;;;40.68;4.96
50105;BME280;47690;39.202;-77.198;2023-02-14T18:31:36;100365.66;;;40.90;4.83
50105;BME280;47690;39.202;-77.198;2023-02-14T18:34:46;100358.13;;;40.67;5.20
50105;BME280;47690;39.202;-77.198;2023-02-14T18:37:52;100368.59;;;40.82;4.90
50105;BME280;47690;39.202;-77.198;2023-02-14T18:41:01;100366.16;;;40.80;4.68
50105;BME280;47690;39.202;-77.198;2023-02-14T18:44:10;100352.91;;;40.47;4.84
50105;BME280;47690;39.202;-77.198;2023-02-14T18:47:24;100351.41;;;40.51;5.11
50105;BME280;47690;39.202;-77.198;2023-02-14T18:50:32;100350.47;;;40.64;4.85
50105;BME280;47690;39.202;-77.198;2023-02-14T18:53:43;100338.56;;;40.72;5.26
50105;BME280;47690;39.202;-77.198;2023-02-14T18:57:16;100337.06;;;41.01;4.50
50105;BME280;47690;39.202;-77.198;2023-02-14T19:00:23;100340.13;;;40.86;4.79
50105;BME280;47690;39.202;-77.198;2023-02-14T19:03:32;100339.75;;;40.82;5.00
50105;BME280;47690;39.202;-77.198;2023-02-14T19:06:43;100340.72;;;40.88;4.73
50105;BME280;47690;39.202;-77.198;2023-02-14T19:09:50;100343.13;;;40.96;5.04
50105;BME280;47690;39.202;-77.198;2023-02-14T19:13:24;100331.44;;;41.03;5.04
50105;BME280;47690;39.202;-77.198;2023-02-14T19:16:51;100332.06;;;41.05;5.04
50105;BME280;47690;39.202;-77.198;2023-02-14T19:21:16;100332.59;;;41.32;4.56
50105;BME280;47690;39.202;-77.198;2023-02-14T19:24:06;100337.28;;;41.00;4.96
50105;BME280;47690;39.202;-77.198;2023-02-14T19:27:23;100340.41;;;40.96;4.20
50105;BME280;47690;39.202;-77.198;2023-02-14T19:31:12;100342.22;;;41.03;4.52
50105;BME280;47690;39.202;-77.198;2023-02-14T19:34:36;100349.44;;;41.09;4.57
50105;BME280;47690;39.202;-77.198;2023-02-14T19:37:43;100341.03;;;40.99;4.66
50105;BME280;47690;39.202;-77.198;2023-02-14T19:41:17;100338.59;;;41.16;4.29
50105;BME280;47690;39.202;-77.198;2023-02-14T19:44:23;100331.00;;;41.06;4.67
50105;BME280;47690;39.202;-77.198;2023-02-14T19:47:35;100334.50;;;41.06;4.51
50105;BME280;47690;39.202;-77.198;2023-02-14T19:50:44;100340.75;;;41.07;4.58
50105;BME280;47690;39.202;-77.198;2023-02-14T19:53:51;100346.38;;;41.05;4.24
50105;BME280;47690;39.202;-77.198;2023-02-14T19:56:54;100344.88;;;41.09;4.42